Time;durP1;ratioP1;P1;durP2;ratioP2;P2;SDS_P1;SDS_P2;PMS_P1;PMS_P2;Temp;Humidity;BMP_temperature;BMP_pressure;BME280_temperature;BME280_humidity;BME280_pressure;Samples;Min_cycle;Max_cycle;Signal;HPM_P1;HPM_P2
2021/01/06 00:00:51;;;;;;;39.60;22.20;;;;;;;0.69;100.00;99914.81;1737108;82;21186;-68
2021/01/06 00:03:21;;;;;;;36.93;23.63;;;;;;;0.67;100.00;99917.34;1737945;82;21163;-69
2021/01/06 00:05:59;;;;;;;37.73;23.50;;;;;;;0.65;100.00;99912.22;1737382;82;21571;-68
2021/01/06 00:08:28;;;;;;;34.70;21.50;;;;;;;0.67;100.00;99918.13;1736688;82;21209;-69
2021/01/06 00:10:57;;;;;;;40.97;23.20;;;;;;;0.67;100.00;99919.98;1735564;82;21572;-70
2021/01/06 00:13:24;;;;;;;37.87;23.27;;;;;;;0.69;100.00;99916.64;1736548;82;21174;-70
2021/01/06 00:15:52;;;;;;;37.40;26.17;;;;;;;0.67;100.00;99918.13;1736667;82;21251;-67
2021/01/06 00:18:20;;;;;;;35.90;23.77;;;;;;;0.66;100.00;99920.48;1736418;82;21158;-67
2021/01/06 00:20:48;;;;;;;39.63;25.37;;;;;;;0.69;100.00;99924.58;1735922;82;21043;-67
2021/01/06 00:23:16;;;;;;;41.03;25.23;;;;;;;0.72;100.00;99924.23;1736556;82;21169;-66
2021/01/06 00:25:45;;;;;;;31.20;23.37;;;;;;;0.71;100.00;99925.23;1736667;82;21026;-67
2021/01/06 00:28:17;;;;;;;36.43;25.53;;;;;;;0.76;100.00;99932.14;1735909;82;21373;-66
2021/01/06 00:30:54;;;;;;;40.93;25.70;;;;;;;0.74;100.00;99923.54;1736385;82;21181;-66
2021/01/06 00:33:28;;;;;;;41.00;27.43;;;;;;;0.72;100.00;99922.39;1736600;82;21024;-69
2021/01/06 00:36:00;;;;;;;39.67;22.77;;;;;;;0.77;100.00;99920.02;1736524;81;21111;-68
2021/01/06 00:38:30;;;;;;;35.27;21.93;;;;;;;0.85;100.00;99921.78;1736630;82;21138;-67
2021/01/06 00:40:58;;;;;;;43.00;25.30;;;;;;;0.82;100.00;99923.45;1736665;82;21368;-68
2021/01/06 00:43:26;;;;;;;33.20;20.47;;;;;;;0.81;100.00;99922.66;1736458;82;21142;-68
2021/01/06 00:45:55;;;;;;;32.30;20.43;;;;;;;0.84;100.00;99919.63;1737743;82;20979;-71
2021/01/06 00:48:23;;;;;;;38.77;23.37;;;;;;;0.88;100.00;99922.23;1737040;81;21833;-67
2021/01/06 00:50:52;;;;;;;35.20;22.10;;;;;;;0.90;100.00;99926.03;1736570;82;21138;-66
2021/01/06 00:53:23;;;;;;;37.77;22.07;;;;;;;0.85;100.00;99917.31;1736037;82;22298;-68
2021/01/06 00:55:53;;;;;;;45.43;23.93;;;;;;;0.87;100.00;99911.81;1731901;82;21162;-70
2021/01/06 00:58:21;;;;;;;36.23;22.00;;;;;;;0.86;100.00;99910.19;1727962;82;21106;-69
2021/01/06 01:00:49;;;;;;;37.95;24.75;;;;;;;0.92;100.00;99912.59;1736558;82;21138;-67
2021/01/06 01:03:16;;;;;;;36.40;22.60;;;;;;;0.93;100.00;99907.63;1736480;82;21162;-68
2021/01/06 01:05:47;;;;;;;39.35;25.57;;;;;;;0.91;100.00;99910.47;1736608;82;21203;-69
2021/01/06 01:08:14;;;;;;;51.33;29.30;;;;;;;0.84;100.00;99902.42;1736451;82;21568;-68
2021/01/06 01:10:49;;;;;;;44.77;24.77;;;;;;;0.83;100.00;99906.07;1736486;82;21097;-70
2021/01/06 01:13:20;;;;;;;40.03;28.25;;;;;;;0.86;100.00;99903.58;1734649;82;21125;-68
2021/01/06 01:15:51;;;;;;;48.97;29.00;;;;;;;0.87;100.00;99907.34;1727269;82;21150;-67
2021/01/06 01:18:26;;;;;;;42.47;25.90;;;;;;;0.86;100.00;99904.90;1705697;82;21372;-69
2021/01/06 01:20:57;;;;;;;36.10;23.37;;;;;;;0.89;100.00;99895.26;1705641;84;21134;-67
2021/01/06 01:23:27;;;;;;;30.03;21.47;;;;;;;0.92;100.00;99894.05;1732505;82;21162;-69
2021/01/06 01:25:56;;;;;;;40.43;24.15;;;;;;;0.89;100.00;99891.28;1736570;82;21047;-69
2021/01/06 01:28:25;;;;;;;39.40;23.87;;;;;;;0.88;100.00;99891.78;1736760;82;21182;-70
2021/01/06 01:30:56;;;;;;;41.67;27.17;;;;;;;0.87;100.00;99894.60;1736912;81;21160;-71
2021/01/06 01:33:25;;;;;;;42.15;27.42;;;;;;;0.85;100.00;99889.52;1736498;82;20964;-70
2021/01/06 01:35:55;;;;;;;38.67;24.82;;;;;;;0.89;100.00;99885.98;1734430;82;21596;-67
2021/01/06 01:38:26;;;;;;;39.70;24.57;;;;;;;0.91;100.00;99884.49;1735782;82;21186;-68
2021/01/06 01:41:10;;;;;;;39.63;25.60;;;;;;;0.91;100.00;99881.34;1736490;82;21150;-68
2021/01/06 01:43:37;;;;;;;;;;;;;;;0.88;100.00;99876.40;1709836;83;22255;-69
2021/01/06 01:46:11;;;;;;;37.70;25.43;;;;;;;0.84;100.00;99871.98;1707095;83;20228;-69
2021/01/06 01:48:48;;;;;;;;;;;;;;;0.79;100.00;99869.55;1719449;82;21197;-67
2021/01/06 01:51:36;;;;;;;38.87;25.27;;;;;;;0.78;100.00;99866.58;1727185;82;20546;-71
2021/01/06 01:54:07;;;;;;;35.00;24.77;;;;;;;0.78;100.00;99866.58;1736351;82;21622;-70
2021/01/06 01:57:04;;;;;;;39.53;23.30;;;;;;;0.77;100.00;99868.41;1744386;81;21200;-70
2021/01/06 01:59:43;;;;;;;47.50;27.83;;;;;;;0.78;100.00;99863.44;1737932;82;21137;-70
2021/01/06 02:02:23;;;;;;;34.07;21.80;;;;;;;0.76;100.00;99858.02;1726396;82;21090;-71
2021/01/06 02:04:57;;;;;;;43.47;28.13;;;;;;;0.78;100.00;99869.23;1744720;82;21007;-69
2021/01/06 02:07:27;;;;;;;46.00;26.57;;;;;;;0.80;100.00;99860.11;1744091;82;21149;-70
2021/01/06 02:10:02;;;;;;;39.50;26.40;;;;;;;0.82;100.00;99858.59;1745191;82;22071;-69
2021/01/06 02:12:53;;;;;;;43.13;24.87;;;;;;;0.86;100.00;99855.92;1738782;81;21225;-69
2021/01/06 02:15:44;;;;;;;43.60;27.43;;;;;;;0.84;100.00;99853.95;1710645;82;21663;-68
2021/01/06 02:18:13;;;;;;;44.53;27.93;;;;;;;0.82;100.00;99856.77;1744814;82;21169;-67
2021/01/06 02:20:40;;;;;;;42.70;26.05;;;;;;;0.80;100.00;99860.11;1737292;82;21560;-70
2021/01/06 02:23:07;;;;;;;46.93;27.30;;;;;;;0.78;100.00;99862.61;1734802;82;21438;-71
2021/01/06 02:25:39;;;;;;;50.70;30.93;;;;;;;0.81;100.00;99864.41;1744692;82;21007;-69
2021/01/06 02:28:05;;;;;;;41.97;27.30;;;;;;;0.82;100.00;99866.53;1744484;82;21173;-68
2021/01/06 02:30:33;;;;;;;53.08;34.15;;;;;;;0.84;100.00;99860.56;1744561;82;21146;-69
2021/01/06 02:33:00;;;;;;;50.43;32.33;;;;;;;0.86;100.00;99863.33;1744651;82;21188;-69
2021/01/06 02:35:28;;;;;;;61.60;34.95;;;;;;;0.86;100.00;99859.36;1696539;83;21486;-71
2021/01/06 02:37:56;;;;;;;48.90;29.52;;;;;;;0.84;100.00;99860.56;1724987;83;21606;-70
2021/01/06 02:40:25;;;;;;;61.83;37.87;;;;;;;0.87;100.00;99852.25;1734003;82;21134;-68
2021/01/06 02:42:53;;;;;;;59.45;34.78;;;;;;;0.87;100.00;99846.95;1742814;82;21122;-72
2021/01/06 02:45:21;;;;;;;54.70;31.13;;;;;;;0.85;100.00;99849.80;1714217;82;21142;-68
2021/01/06 02:47:49;;;;;;;58.02;33.63;;;;;;;0.84;100.00;99852.12;1709164;83;21216;-69
2021/01/06 02:50:21;;;;;;;64.53;34.25;;;;;;;0.84;100.00;99853.95;1709127;84;21996;-69
2021/01/06 02:52:58;;;;;;;62.10;34.83;;;;;;;0.83;100.00;99858.91;1725932;82;21161;-69
2021/01/06 02:55:28;;;;;;;55.77;35.30;;;;;;;0.85;100.00;99848.98;1748309;82;21072;-68
2021/01/06 02:57:56;;;;;;;46.43;29.10;;;;;;;0.86;100.00;99851.95;1722470;82;21603;-70
2021/01/06 03:00:25;;;;;;;60.07;33.23;;;;;;;0.87;100.00;99849.09;1723356;82;21388;-69
2021/01/06 03:02:53;;;;;;;55.63;33.77;;;;;;;0.86;100.00;99845.33;1749781;82;21125;-69
2021/01/06 03:05:40;;;;;;;57.30;31.47;;;;;;;0.87;100.00;99851.75;1750591;82;22238;-68
2021/01/06 03:08:12;;;;;;;63.90;37.57;;;;;;;0.90;100.00;99843.95;1747821;81;21118;-69
2021/01/06 03:10:40;;;;;;;49.35;28.95;;;;;;;0.84;100.00;99842.86;1750381;82;27217;-70
2021/01/06 03:13:07;;;;;;;62.30;33.60;;;;;;;0.80;100.00;99843.41;1750529;82;21445;-70
2021/01/06 03:15:35;;;;;;;56.07;31.97;;;;;;;0.79;100.00;99842.58;1750399;82;21169;-68
2021/01/06 03:18:04;;;;;;;61.55;32.58;;;;;;;0.83;100.00;99843.03;1750511;82;21133;-69
2021/01/06 03:20:37;;;;;;;59.77;34.53;;;;;;;0.82;100.00;99838.23;1732427;82;21165;-68
2021/01/06 03:23:12;;;;;;;49.80;27.50;;;;;;;0.84;100.00;99838.06;1718035;83;21520;-72
2021/01/06 03:25:41;;;;;;;43.48;26.60;;;;;;;0.87;100.00;99842.98;1742552;82;21425;-68
2021/01/06 03:28:10;;;;;;;56.67;32.60;;;;;;;0.86;100.00;99846.13;1724889;82;21158;-68
2021/01/06 03:30:38;;;;;;;52.73;31.27;;;;;;;0.86;100.00;99842.16;1745573;82;21158;-69
2021/01/06 03:33:35;;;;;;;60.47;33.03;;;;;;;1.00;100.00;99841.02;1749811;82;21154;-69
2021/01/06 03:36:09;;;;;;;61.30;30.50;;;;;;;1.01;100.00;99843.47;1740015;82;21105;-69
2021/01/06 03:38:56;;;;;;;49.30;30.63;;;;;;;0.96;100.00;99842.41;1722621;83;22445;-68
2021/01/06 03:41:24;;;;;;;52.48;27.80;;;;;;;0.88;99.91;99841.48;1720883;83;21184;-70
2021/01/06 03:43:57;;;;;;;58.60;33.43;;;;;;;0.85;100.00;99843.69;1720772;83;21113;-70
2021/01/06 03:46:45;;;;;;;49.58;28.25;;;;;;;0.87;100.00;99849.59;1709272;82;21134;-71
2021/01/06 03:49:51;;;;;;;58.33;31.57;;;;;;;0.93;100.00;99846.22;1748868;82;21080;-69
2021/01/06 03:52:48;;;;;;;62.65;35.90;;;;;;;0.93;100.00;99848.05;1750565;82;21334;-69
2021/01/06 03:55:33;;;;;;;66.22;41.80;;;;;;;0.89;100.00;99851.57;1735439;82;21778;-69
2021/01/06 03:58:01;;;;;;;59.93;36.10;;;;;;;0.86;100.00;99851.95;1750685;82;21668;-69
2021/01/06 04:00:46;;;;;;;61.13;39.23;;;;;;;0.87;100.00;99845.62;1723134;82;21202;-69
2021/01/06 04:03:40;;;;;;;67.50;42.37;;;;;;;0.86;100.00;99850.09;1721922;82;21574;-70
2021/01/06 04:06:07;;;;;;;60.10;36.53;;;;;;;0.89;100.00;99852.89;1745302;82;21257;-70
2021/01/06 04:08:54;;;;;;;63.07;35.13;;;;;;;0.97;100.00;99856.76;1747647;82;21906;-70
2021/01/06 04:11:27;;;;;;;59.90;38.20;;;;;;;0.91;100.00;99852.72;1750668;82;21161;-68
2021/01/06 04:13:57;;;;;;;51.77;31.00;;;;;;;0.89;100.00;99850.25;1750737;82;21574;-68
2021/01/06 04:16:25;;;;;;;48.40;33.00;;;;;;;0.91;100.00;99848.25;1745165;82;21185;-66
2021/01/06 04:18:53;;;;;;;62.03;35.30;;;;;;;0.96;100.00;99843.73;1749960;82;22259;-67
2021/01/06 04:21:21;;;;;;;56.68;35.30;;;;;;;0.94;100.00;99843.08;1751295;82;21979;-68
2021/01/06 04:23:48;;;;;;;47.33;30.13;;;;;;;0.97;100.00;99845.34;1750490;82;21059;-68
2021/01/06 04:26:18;;;;;;;57.78;30.65;;;;;;;0.95;99.93;99842.08;1750700;82;21107;-69
2021/01/06 04:28:46;;;;;;;57.67;32.87;;;;;;;0.90;99.85;99838.66;1750577;82;21165;-66
2021/01/06 04:31:18;;;;;;;58.92;34.15;;;;;;;0.90;100.00;99832.54;1731886;82;21412;-69
2021/01/06 04:33:52;;;;;;;49.15;28.38;;;;;;;0.92;100.00;99839.28;1743267;82;21144;-66
2021/01/06 04:36:23;;;;;;;46.47;29.47;;;;;;;0.97;100.00;99846.67;1750548;82;21098;-69
2021/01/06 04:38:53;;;;;;;58.48;36.60;;;;;;;1.02;100.00;99846.44;1743619;82;21205;-67
2021/01/06 04:41:41;;;;;;;46.73;28.93;;;;;;;1.00;99.84;99844.50;1739116;82;21166;-68
2021/01/06 04:44:45;;;;;;;39.10;26.83;;;;;;;1.00;99.81;99852.94;1750602;82;21428;-66
2021/01/06 04:47:42;;;;;;;48.23;31.10;;;;;;;1.02;99.82;99855.70;1750343;80;21161;-69
2021/01/06 04:50:51;;;;;;;70.27;39.93;;;;;;;1.02;99.89;99852.23;1750574;82;21105;-69
2021/01/06 04:53:45;;;;;;;54.50;32.80;;;;;;;1.01;99.81;99848.77;1750532;82;21181;-67
2021/01/06 04:56:47;;;;;;;46.77;31.87;;;;;;;1.10;99.95;99853.48;1743227;81;21177;-67
2021/01/06 04:59:38;;;;;;;59.53;35.38;;;;;;;1.15;99.78;99852.42;1736690;82;22377;-67
2021/01/06 05:02:27;;;;;;;60.43;32.20;;;;;;;1.12;99.48;99849.63;1724624;82;21143;-67
2021/01/06 05:05:21;;;;;;;60.33;34.60;;;;;;;1.10;99.44;99854.80;1737504;82;21179;-70
2021/01/06 05:08:12;;;;;;;53.63;33.77;;;;;;;1.07;99.46;99855.98;1736596;82;21853;-69
2021/01/06 05:10:55;;;;;;;58.10;35.13;;;;;;;1.08;99.59;99856.80;1713720;82;21209;-68
2021/01/06 05:13:47;;;;;;;49.48;28.98;;;;;;;1.11;99.57;99853.77;1685738;84;22298;-68
2021/01/06 05:16:25;;;;;;;65.10;36.70;;;;;;;1.11;99.56;99853.27;1736293;82;21150;-69
2021/01/06 05:18:53;;;;;;;79.07;37.57;;;;;;;1.06;99.43;99858.30;1736529;82;21118;-69
2021/01/06 05:21:22;;;;;;;62.17;29.92;;;;;;;1.03;99.50;99866.63;1735916;82;21217;-68
2021/01/06 05:23:53;;;;;;;60.50;34.10;;;;;;;1.02;99.66;99870.27;1736562;82;21122;-69
2021/01/06 05:26:21;;;;;;;57.80;34.30;;;;;;;1.06;99.83;99870.72;1715957;82;21333;-68
2021/01/06 05:28:49;;;;;;;57.43;30.90;;;;;;;1.14;100.00;99877.26;1705615;84;21169;-69
2021/01/06 05:31:16;;;;;;;72.40;36.77;;;;;;;1.13;99.78;99880.41;1684931;84;21159;-70
2021/01/06 05:33:49;;;;;;;65.25;38.38;;;;;;;1.12;99.70;99877.94;1728082;82;21134;-69
2021/01/06 05:36:22;;;;;;;68.02;38.83;;;;;;;1.12;99.70;99884.06;1736480;82;21020;-70
2021/01/06 05:38:49;;;;;;;45.48;26.40;;;;;;;1.18;99.85;99887.30;1736693;82;21229;-67
2021/01/06 05:41:16;;;;;;;53.28;30.15;;;;;;;1.25;99.98;99893.98;1735690;82;21015;-70
2021/01/06 05:43:49;;;;;;;57.17;29.40;;;;;;;1.29;99.92;99894.79;1736502;82;21118;-70
2021/01/06 05:46:27;;;;;;;63.70;33.38;;;;;;;1.32;99.81;99896.23;1737036;82;21111;-70
2021/01/06 05:49:00;;;;;;;54.20;30.72;;;;;;;1.27;99.36;99891.48;1736673;82;21098;-69
2021/01/06 05:51:36;;;;;;;54.98;31.57;;;;;;;1.24;99.30;99880.45;1736598;82;21368;-68
2021/01/06 05:54:36;;;;;;;66.15;35.43;;;;;;;1.26;99.49;99878.42;1736413;82;21019;-68
2021/01/06 05:57:35;;;;;;;80.47;38.35;;;;;;;1.27;99.32;99880.06;1742230;81;21173;-68
2021/01/06 06:00:23;;;;;;;61.88;35.95;;;;;;;1.24;99.36;99885.25;1750591;82;21148;-70
2021/01/06 06:03:32;;;;;;;45.05;25.70;;;;;;;1.24;99.45;99883.92;1750402;82;21173;-70
2021/01/06 06:06:14;;;;;;;57.23;31.02;;;;;;;1.28;99.48;99879.89;1750532;82;21201;-69
2021/01/06 06:09:11;;;;;;;67.25;35.33;;;;;;;1.23;99.40;99876.16;1749015;82;22017;-68
2021/01/06 06:12:36;;;;;;;61.95;31.30;;;;;;;1.31;99.83;99875.53;1750514;82;21200;-69
2021/01/06 06:15:26;;;;;;;49.93;28.42;;;;;;;1.37;99.75;99875.30;1724865;82;21147;-68
2021/01/06 06:18:20;;;;;;;67.45;33.63;;;;;;;1.35;99.49;99884.42;1749032;82;21141;-69
2021/01/06 06:21:11;;;;;;;64.72;32.55;;;;;;;1.31;99.27;99893.26;1750556;82;21387;-69
2021/01/06 06:24:19;;;;;;;68.50;36.67;;;;;;;1.36;99.43;99895.34;1849537;76;21660;-68
2021/01/06 06:27:16;;;;;;;57.05;31.00;;;;;;;1.28;99.40;99902.41;1820089;78;21101;-70
2021/01/06 06:29:49;;;;;;;66.17;33.48;;;;;;;1.31;99.62;99895.41;1819112;78;21390;-68
2021/01/06 06:32:16;;;;;;;58.63;31.07;;;;;;;1.33;99.55;99902.36;1818672;78;21001;-70
2021/01/06 06:34:44;;;;;;;70.60;38.02;;;;;;;1.30;99.45;99909.66;1819737;78;20946;-69
2021/01/06 06:37:16;;;;;;;66.17;35.70;;;;;;;1.31;99.57;99902.03;1819808;78;22186;-68
2021/01/06 06:39:47;;;;;;;72.58;37.28;;;;;;;1.35;99.57;99902.97;1817492;78;20958;-70
2021/01/06 06:42:29;;;;;;;66.42;32.73;;;;;;;1.36;99.70;99907.27;1819663;78;21313;-67
2021/01/06 06:45:04;;;;;;;84.45;42.03;;;;;;;1.42;99.81;99913.99;1803066;78;20950;-67
2021/01/06 06:48:02;;;;;;;64.13;33.07;;;;;;;1.45;99.50;99913.61;1841268;76;22733;-70
2021/01/06 06:51:17;;;;;;;67.27;33.42;;;;;;;1.42;99.55;99917.14;1811751;79;20967;-72
2021/01/06 06:53:53;;;;;;;;;;;;;;;1.40;99.45;99912.52;1817326;79;21365;-69
2021/01/06 06:56:31;;;;;;;75.10;38.83;;;;;;;1.41;99.69;99903.06;1814546;79;20164;-69
2021/01/06 06:59:25;;;;;;;62.35;33.78;;;;;;;1.40;99.68;99904.56;1778856;80;21031;-69
2021/01/06 07:01:53;;;;;;;89.37;41.15;;;;;;;1.38;99.75;99903.95;1754375;81;21464;-70
2021/01/06 07:04:40;;;;;;;80.83;38.78;;;;;;;1.40;99.80;99901.92;1730128;81;21048;-71
2021/01/06 07:07:07;;;;;;;72.82;39.33;;;;;;;1.40;99.79;99900.59;1714482;83;21377;-72
2021/01/06 07:09:37;;;;;;;95.07;47.20;;;;;;;1.40;99.96;99897.44;1685600;83;21033;-70
2021/01/06 07:12:07;;;;;;;88.92;46.58;;;;;;;1.39;99.86;99898.97;1713236;83;21038;-68
2021/01/06 07:14:49;;;;;;;61.63;34.73;;;;;;;1.42;100.00;99894.61;1698877;83;21065;-70
2021/01/06 07:17:31;;;;;;;75.08;43.80;;;;;;;1.46;100.00;99894.05;1713316;83;21137;-71
2021/01/06 07:20:11;;;;;;;109.72;54.88;;;;;;;1.48;100.00;99889.91;1683595;85;21417;-71
2021/01/06 07:22:49;;;;;;;84.92;43.00;;;;;;;1.50;100.00;99894.50;1684365;85;20974;-70
2021/01/06 07:25:34;;;;;;;93.67;41.37;;;;;;;1.49;100.00;99896.33;1684338;85;21176;-70
2021/01/06 07:28:03;;;;;;;97.33;46.28;;;;;;;1.46;100.00;99897.20;1685301;83;21091;-71
2021/01/06 07:30:35;;;;;;;86.63;40.80;;;;;;;1.44;100.00;99897.91;1710641;83;21254;-69
2021/01/06 07:33:23;;;;;;;68.80;35.08;;;;;;;1.50;100.00;99899.30;1713107;83;21458;-70
2021/01/06 07:35:51;;;;;;;83.05;41.75;;;;;;;1.54;100.00;99892.61;1710856;83;21649;-70
2021/01/06 07:38:19;;;;;;;80.38;38.92;;;;;;;1.56;100.00;99897.73;1684637;85;21056;-69
2021/01/06 07:40:47;;;;;;;115.03;53.65;;;;;;;1.57;100.00;99904.19;1683163;85;21140;-70
2021/01/06 07:43:20;;;;;;;95.55;54.63;;;;;;;1.55;100.00;99900.06;1702027;84;21135;-66
2021/01/06 07:46:03;;;;;;;113.32;51.10;;;;;;;1.55;100.00;99900.06;1683159;85;21249;-68
2021/01/06 07:48:53;;;;;;;97.95;47.88;;;;;;;1.58;100.00;99904.48;1669284;85;25778;-67
2021/01/06 07:51:35;;;;;;;104.43;46.48;;;;;;;1.61;100.00;99905.95;1692786;84;21659;-67
2021/01/06 07:54:17;;;;;;;66.25;32.35;;;;;;;1.60;100.00;99909.61;1685552;85;21147;-69
2021/01/06 07:57:07;;;;;;;99.55;45.17;;;;;;;1.66;100.00;99911.02;1684726;85;21151;-68
2021/01/06 07:59:54;;;;;;;113.40;51.58;;;;;;;1.70;100.00;99918.08;1684610;85;21450;-69
2021/01/06 08:02:32;;;;;;;96.45;45.38;;;;;;;1.77;100.00;99911.54;1684459;85;21060;-68
2021/01/06 08:05:17;;;;;;;65.30;33.67;;;;;;;1.86;100.00;99919.19;1683984;85;21139;-68
2021/01/06 08:07:44;;;;;;;61.80;33.13;;;;;;;1.91;100.00;99917.30;1681587;83;21774;-68
2021/01/06 08:10:24;;;;;;;77.80;37.00;;;;;;;1.91;100.00;99919.45;1683510;85;21204;-68
2021/01/06 08:12:52;;;;;;;101.70;44.65;;;;;;;1.90;100.00;99917.80;1683654;85;21384;-69
2021/01/06 08:15:25;;;;;;;99.85;48.98;;;;;;;1.89;100.00;99924.61;1658295;85;21168;-67
2021/01/06 08:18:18;;;;;;;79.32;38.67;;;;;;;1.95;100.00;99933.97;1675270;84;21132;-69
2021/01/06 08:21:03;;;;;;;98.12;46.83;;;;;;;2.01;100.00;99937.20;1683778;85;21093;-68
2021/01/06 08:24:05;;;;;;;67.45;33.23;;;;;;;2.04;100.00;99931.52;1683662;85;21163;-67
2021/01/06 08:26:33;;;;;;;73.37;34.92;;;;;;;2.09;100.00;99919.83;1683648;85;21213;-70
2021/01/06 08:29:21;;;;;;;81.75;37.20;;;;;;;2.01;99.70;99926.59;1683667;85;21171;-71
2021/01/06 08:32:10;;;;;;;76.12;38.83;;;;;;;1.95;99.50;99931.81;1675119;85;21156;-67
2021/01/06 08:34:40;;;;;;;64.15;28.12;;;;;;;1.92;99.70;99934.33;1678563;85;21203;-66
2021/01/06 08:37:13;;;;;;;72.40;33.30;;;;;;;1.93;99.86;99932.00;1669590;85;21143;-70
2021/01/06 08:39:55;;;;;;;76.97;34.13;;;;;;;1.94;99.82;99936.80;1683471;85;22273;-69
2021/01/06 08:42:30;;;;;;;58.10;33.35;;;;;;;1.94;99.91;99934.97;1683076;85;21606;-67
2021/01/06 08:44:59;;;;;;;64.17;34.10;;;;;;;1.93;99.73;99939.13;1680315;84;21192;-68
2021/01/06 08:47:34;;;;;;;67.32;32.17;;;;;;;1.86;99.56;99937.75;1694023;84;21141;-69
2021/01/06 08:50:31;;;;;;;54.88;28.35;;;;;;;1.80;99.59;99934.52;1701323;84;21181;-69
2021/01/06 08:53:04;;;;;;;75.95;36.38;;;;;;;1.75;99.76;99931.10;1701272;84;22189;-70
2021/01/06 08:55:39;;;;;;;77.32;36.90;;;;;;;1.79;100.00;99926.23;1691574;84;21204;-70
2021/01/06 08:58:11;;;;;;;76.65;41.68;;;;;;;1.83;100.00;99927.50;1673937;85;21169;-69
2021/01/06 10:31:08;;;;;;;37.90;21.68;;;;;;;2.13;100.00;99909.15;1733612;82;21030;-70
2021/01/06 10:33:38;;;;;;;42.33;20.90;;;;;;;2.14;100.00;99904.66;1714529;82;21027;-67
2021/01/06 10:36:28;;;;;;;44.42;25.55;;;;;;;2.08;100.00;99910.22;1672887;85;21177;-72
2021/01/06 10:38:57;;;;;;;38.65;21.37;;;;;;;2.11;100.00;99908.50;1701282;84;21122;-70
2021/01/06 10:41:34;;;;;;;42.20;20.70;;;;;;;2.13;100.00;99906.50;1709120;84;21220;-69
2021/01/06 10:44:13;;;;;;;42.60;19.70;;;;;;;2.12;100.00;99906.67;1708563;84;21378;-69
2021/01/06 10:46:52;;;;;;;41.18;18.40;;;;;;;2.11;100.00;99908.50;1674540;84;21189;-68
2021/01/06 10:49:25;;;;;;;47.03;25.37;;;;;;;2.10;100.00;99915.34;1656384;85;21561;-70
2021/01/06 10:52:02;;;;;;;38.02;18.80;;;;;;;2.08;100.00;99915.53;1692238;82;21046;-69
2021/01/06 10:54:53;;;;;;;39.30;21.73;;;;;;;2.11;100.00;99914.34;1688219;84;21600;-77
2021/01/06 10:57:38;;;;;;;44.35;22.87;;;;;;;2.12;100.00;99918.11;1719443;83;21417;-68
2021/01/06 11:00:25;;;;;;;41.98;20.57;;;;;;;2.08;100.00;99927.97;1692212;83;21641;-67
2021/01/06 11:03:13;;;;;;;40.65;21.77;;;;;;;2.07;100.00;99928.97;1699716;83;21054;-68
2021/01/06 11:06:01;;;;;;;33.90;18.25;;;;;;;2.06;100.00;99920.19;1721903;83;21161;-68
2021/01/06 11:09:03;;;;;;;37.40;18.92;;;;;;;2.08;100.00;99918.18;1721959;83;21587;-66
2021/01/06 11:12:18;;;;;;;30.57;17.32;;;;;;;2.12;100.00;99920.77;1720411;83;21390;-67
2021/01/06 11:14:57;;;;;;;36.70;18.52;;;;;;;2.18;100.00;99914.70;1721809;83;21927;-65
2021/01/06 11:17:32;;;;;;;31.50;17.27;;;;;;;2.23;100.00;99922.59;1721939;83;21293;-71
2021/01/06 11:20:03;;;;;;;46.08;23.15;;;;;;;2.25;100.00;99924.57;1699304;83;21583;-71
2021/01/06 11:22:43;;;;;;;33.05;19.32;;;;;;;2.27;100.00;99923.35;1706245;83;21197;-72
2021/01/06 11:25:35;;;;;;;42.48;21.07;;;;;;;2.37;100.00;99919.88;1705576;83;22363;-70
2021/01/06 11:28:09;;;;;;;47.38;23.05;;;;;;;2.41;100.00;99926.44;1694669;83;21145;-68
2021/01/06 11:30:39;;;;;;;26.17;15.25;;;;;;;2.47;100.00;99919.55;1697610;83;21165;-69
2021/01/06 11:33:26;;;;;;;40.95;20.08;;;;;;;2.51;100.00;99916.81;1721733;83;21153;-68
2021/01/06 11:36:09;;;;;;;28.02;15.25;;;;;;;2.51;100.00;99922.95;1722342;83;21379;-67
2021/01/06 11:38:45;;;;;;;29.72;18.67;;;;;;;2.51;100.00;99922.13;1722074;83;21427;-68
2021/01/06 11:41:18;;;;;;;37.63;19.12;;;;;;;2.51;100.00;99920.30;1718695;83;21169;-68
2021/01/06 11:44:01;;;;;;;36.03;17.50;;;;;;;2.50;100.00;99916.49;1721271;83;21157;-68
2021/01/06 11:46:54;;;;;;;34.88;15.60;;;;;;;2.47;100.00;99929.66;1721830;83;21224;-70
2021/01/06 11:49:28;;;;;;;;;;;;;;;2.38;100.00;99928.16;1698908;83;21212;-69
2021/01/06 11:52:35;;;;;;;32.38;16.32;;;;;;;2.35;100.00;99931.70;1710820;83;21400;-68
2021/01/06 11:55:35;;;;;;;31.00;17.48;;;;;;;2.28;100.00;99932.96;1676777;84;21192;-69
2021/01/06 11:58:23;;;;;;;40.63;21.65;;;;;;;2.17;100.00;99926.33;1704715;83;21567;-69
2021/01/06 12:01:29;;;;;;;34.18;18.57;;;;;;;2.17;100.00;99926.33;1696065;83;21161;-70
2021/01/06 12:04:14;;;;;;;37.83;19.57;;;;;;;2.11;100.00;99922.30;1720510;83;21568;-68
2021/01/06 12:06:53;;;;;;;34.23;17.50;;;;;;;2.12;100.00;99922.09;1720718;83;21759;-69
2021/01/06 12:09:29;;;;;;;35.73;22.70;;;;;;;2.16;100.00;99914.56;1701099;83;21184;-73
2021/01/06 12:12:16;;;;;;;41.50;20.00;;;;;;;2.14;100.00;99917.94;1691231;83;21186;-70
2021/01/06 12:15:02;;;;;;;37.53;22.93;;;;;;;2.17;100.00;99914.89;1720428;83;21590;-69
2021/01/06 12:17:40;;;;;;;51.45;25.40;;;;;;;2.17;100.00;99913.06;1720167;83;21141;-69
2021/01/06 12:20:31;;;;;;;38.10;20.65;;;;;;;2.17;100.00;99913.06;1721572;83;22284;-73
2021/01/06 12:23:16;;;;;;;45.30;22.80;;;;;;;2.26;100.00;99920.38;1693399;83;21161;-70
2021/01/06 12:25:56;;;;;;;36.27;19.37;;;;;;;2.40;100.00;99918.16;1830859;76;23323;-69
2021/01/06 12:28:45;;;;;;;47.95;25.00;;;;;;;2.40;100.00;99914.70;1785986;79;21048;-70
2021/01/06 12:31:30;;;;;;;48.50;22.10;;;;;;;2.39;100.00;99920.52;1785942;79;21397;-68
2021/01/06 12:34:33;;;;;;;44.35;23.00;;;;;;;2.38;100.00;99922.84;1781143;80;21022;-68
2021/01/06 12:37:18;;;;;;;36.65;17.98;;;;;;;2.39;100.00;99915.70;1761763;78;21837;-69
2021/01/06 12:40:01;;;;;;;45.58;20.82;;;;;;;2.50;100.00;99917.82;1794742;79;21070;-69
2021/01/06 12:42:41;;;;;;;42.80;19.17;;;;;;;2.46;100.00;99917.39;1762880;80;21217;-73
2021/01/06 12:45:21;;;;;;;41.77;20.27;;;;;;;2.42;100.00;99925.42;1724063;80;21201;-71
2021/01/06 12:48:06;;;;;;;37.13;20.90;;;;;;;2.41;100.00;99926.94;1713924;82;21622;-71
2021/01/06 12:51:04;;;;;;;43.08;22.35;;;;;;;2.44;100.00;99929.23;1750332;82;21089;-67
2021/01/06 12:53:40;;;;;;;42.70;22.07;;;;;;;2.48;100.00;99937.12;1719692;82;21085;-65
2021/01/06 12:56:12;;;;;;;51.58;26.35;;;;;;;2.50;100.00;99935.91;1718655;82;21171;-67
2021/01/06 12:58:49;;;;;;;37.15;20.30;;;;;;;2.53;100.00;99934.71;1766657;80;21430;-70
2021/01/06 13:01:29;;;;;;;41.18;23.67;;;;;;;2.53;100.00;99934.71;1773617;80;21141;-74
2021/01/06 13:04:05;;;;;;;41.98;25.15;;;;;;;2.55;100.00;99935.33;1776696;80;21181;-68
2021/01/06 13:06:47;;;;;;;34.38;19.17;;;;;;;2.61;100.00;99938.05;1754069;80;21019;-69
2021/01/06 13:09:35;;;;;;;42.48;22.27;;;;;;;2.64;100.00;99939.48;1764825;80;21094;-68
2021/01/06 13:12:11;;;;;;;50.63;23.80;;;;;;;2.58;100.00;99947.73;1753874;81;22864;-66
2021/01/06 13:14:45;;;;;;;41.08;23.40;;;;;;;2.55;100.00;99949.92;1753084;81;21168;-74
2021/01/06 13:17:24;;;;;;;46.45;22.27;;;;;;;2.56;100.00;99947.59;1754666;80;21002;-69
2021/01/06 13:20:12;;;;;;;32.60;19.30;;;;;;;2.56;100.00;99947.09;1753837;81;21117;-69
2021/01/06 13:22:56;;;;;;;54.00;27.82;;;;;;;2.60;100.00;99954.16;1753921;81;21156;-81
2021/01/06 13:25:35;;;;;;;50.98;24.18;;;;;;;2.56;100.00;99960.36;1756151;81;23524;-68
2021/01/06 13:28:35;;;;;;;51.20;24.20;;;;;;;2.54;100.00;99962.37;1783015;80;21621;-70
2021/01/06 13:31:22;;;;;;;48.70;22.98;;;;;;;2.44;99.98;99963.73;1783561;80;21128;-71
2021/01/06 13:34:10;;;;;;;46.48;22.82;;;;;;;2.34;100.00;99973.34;1757266;81;22229;-68
2021/01/06 13:37:03;;;;;;;45.50;22.17;;;;;;;2.30;100.00;99976.06;1731928;82;21183;-70
2021/01/06 13:39:48;;;;;;;50.52;23.87;;;;;;;2.34;100.00;99984.46;1753378;81;21212;-66
2021/01/06 13:42:45;;;;;;;53.30;27.93;;;;;;;2.28;100.00;99978.58;1770886;80;22338;-68